sensor_id;sensor_type;location;lat;lon;timestamp;P1;durP1;ratioP1;P2;durP2;ratioP2
50122;SDS011;36021;48.670;6.184;2022-12-18T00:00:59;29.35;;;8.02;;
50122;SDS011;36021;48.670;6.184;2022-12-18T00:03:25;27.10;;;9.10;;
50122;SDS011;36021;48.670;6.184;2022-12-18T00:05:51;28.38;;;8.55;;
50122;SDS011;36021;48.670;6.184;2022-12-18T00:08:18;25.15;;;7.75;;
50122;SDS011;36021;48.670;6.184;2022-12-18T00:10:45;28.20;;;9.60;;
50122;SDS011;36021;48.670;6.184;2022-12-18T00:13:11;28.13;;;9.15;;
50122;SDS011;36021;48.670;6.184;2022-12-18T00:15:38;25.42;;;8.00;;
50122;SDS011;36021;48.670;6.184;2022-12-18T00:18:05;34.40;;;9.05;;
50122;SDS011;36021;48.670;6.184;2022-12-18T00:20:35;28.38;;;8.88;;
50122;SDS011;36021;48.670;6.184;2022-12-18T00:23:05;38.45;;;8.13;;
50122;SDS011;36021;48.670;6.184;2022-12-18T00:25:33;32.38;;;9.25;;
50122;SDS011;36021;48.670;6.184;2022-12-18T00:28:00;22.48;;;8.25;;
50122;SDS011;36021;48.670;6.184;2022-12-18T00:30:26;28.10;;;7.85;;
50122;SDS011;36021;48.670;6.184;2022-12-18T00:32:52;40.03;;;7.85;;
50122;SDS011;36021;48.670;6.184;2022-12-18T00:35:17;30.08;;;8.77;;
50122;SDS011;36021;48.670;6.184;2022-12-18T00:37:43;37.47;;;9.68;;
50122;SDS011;36021;48.670;6.184;2022-12-18T00:40:10;23.83;;;8.20;;
50122;SDS011;36021;48.670;6.184;2022-12-18T00:42:37;24.85;;;8.98;;
50122;SDS011;36021;48.670;6.184;2022-12-18T00:45:23;25.08;;;7.85;;
50122;SDS011;36021;48.670;6.184;2022-12-18T00:47:50;22.80;;;9.13;;
50122;SDS011;36021;48.670;6.184;2022-12-18T00:50:16;37.10;;;10.75;;
50122;SDS011;36021;48.670;6.184;2022-12-18T00:52:42;30.58;;;9.48;;
50122;SDS011;36021;48.670;6.184;2022-12-18T00:55:08;24.02;;;9.45;;
50122;SDS011;36021;48.670;6.184;2022-12-18T00:57:34;29.80;;;9.00;;
50122;SDS011;36021;48.670;6.184;2022-12-18T01:00:01;36.35;;;9.73;;
50122;SDS011;36021;48.670;6.184;2022-12-18T01:02:28;32.95;;;10.13;;
50122;SDS011;36021;48.670;6.184;2022-12-18T01:04:53;32.78;;;9.07;;
50122;SDS011;36021;48.670;6.184;2022-12-18T01:07:19;21.85;;;8.73;;
50122;SDS011;36021;48.670;6.184;2022-12-18T01:09:44;28.95;;;10.10;;
50122;SDS011;36021;48.670;6.184;2022-12-18T01:12:10;26.08;;;8.23;;
50122;SDS011;36021;48.670;6.184;2022-12-18T01:14:36;40.95;;;10.15;;
50122;SDS011;36021;48.670;6.184;2022-12-18T01:17:03;31.23;;;9.55;;
50122;SDS011;36021;48.670;6.184;2022-12-18T01:19:32;27.45;;;8.23;;
50122;SDS011;36021;48.670;6.184;2022-12-18T01:21:58;28.15;;;8.48;;
50122;SDS011;36021;48.670;6.184;2022-12-18T01:24:25;26.50;;;8.27;;
50122;SDS011;36021;48.670;6.184;2022-12-18T01:26:51;35.33;;;9.27;;
50122;SDS011;36021;48.670;6.184;2022-12-18T01:29:17;28.33;;;8.07;;
50122;SDS011;36021;48.670;6.184;2022-12-18T01:31:43;31.20;;;9.25;;
50122;SDS011;36021;48.670;6.184;2022-12-18T01:34:09;35.38;;;10.30;;
50122;SDS011;36021;48.670;6.184;2022-12-18T01:36:35;29.80;;;8.90;;
50122;SDS011;36021;48.670;6.184;2022-12-18T01:39:07;27.13;;;7.93;;
50122;SDS011;36021;48.670;6.184;2022-12-18T01:41:36;32.72;;;9.15;;
50122;SDS011;36021;48.670;6.184;2022-12-18T01:47:24;27.85;;;9.45;;
50122;SDS011;36021;48.670;6.184;2022-12-18T01:52:33;24.40;;;7.35;;
50122;SDS011;36021;48.670;6.184;2022-12-18T01:55:03;32.65;;;8.90;;
50122;SDS011;36021;48.670;6.184;2022-12-18T01:57:32;27.02;;;8.63;;
50122;SDS011;36021;48.670;6.184;2022-12-18T02:00:00;35.78;;;10.43;;
50122;SDS011;36021;48.670;6.184;2022-12-18T02:02:38;28.50;;;6.97;;
50122;SDS011;36021;48.670;6.184;2022-12-18T02:05:06;31.17;;;8.90;;
50122;SDS011;36021;48.670;6.184;2022-12-18T02:07:41;22.55;;;7.35;;
50122;SDS011;36021;48.670;6.184;2022-12-18T02:12:56;32.05;;;9.52;;
50122;SDS011;36021;48.670;6.184;2022-12-18T02:18:28;36.78;;;8.70;;
50122;SDS011;36021;48.670;6.184;2022-12-18T02:26:24;36.65;;;8.80;;
50122;SDS011;36021;48.670;6.184;2022-12-18T02:29:39;30.58;;;9.00;;
50122;SDS011;36021;48.670;6.184;2022-12-18T02:32:12;35.47;;;9.07;;
50122;SDS011;36021;48.670;6.184;2022-12-18T02:34:42;40.30;;;9.13;;
50122;SDS011;36021;48.670;6.184;2022-12-18T02:37:15;35.55;;;9.10;;
50122;SDS011;36021;48.670;6.184;2022-12-18T02:39:46;33.20;;;9.48;;
50122;SDS011;36021;48.670;6.184;2022-12-18T02:42:14;34.03;;;10.45;;
50122;SDS011;36021;48.670;6.184;2022-12-18T02:44:43;31.42;;;9.10;;
50122;SDS011;36021;48.670;6.184;2022-12-18T02:47:14;38.75;;;10.38;;
50122;SDS011;36021;48.670;6.184;2022-12-18T03:03:37;66.25;;;15.73;;
50122;SDS011;36021;48.670;6.184;2022-12-18T03:06:51;63.15;;;14.30;;
50122;SDS011;36021;48.670;6.184;2022-12-18T03:09:09;67.07;;;16.77;;
50122;SDS011;36021;48.670;6.184;2022-12-18T03:11:39;69.05;;;14.02;;
50122;SDS011;36021;48.670;6.184;2022-12-18T03:14:28;61.78;;;16.52;;
50122;SDS011;36021;48.670;6.184;2022-12-18T03:19:25;48.20;;;13.00;;
50122;SDS011;36021;48.670;6.184;2022-12-18T03:21:57;58.78;;;13.82;;
50122;SDS011;36021;48.670;6.184;2022-12-18T03:24:30;64.55;;;14.27;;
50122;SDS011;36021;48.670;6.184;2022-12-18T03:27:00;76.22;;;15.82;;
50122;SDS011;36021;48.670;6.184;2022-12-18T03:29:31;65.90;;;14.48;;
50122;SDS011;36021;48.670;6.184;2022-12-18T03:32:04;77.57;;;14.77;;
50122;SDS011;36021;48.670;6.184;2022-12-18T03:34:34;90.13;;;17.67;;
50122;SDS011;36021;48.670;6.184;2022-12-18T03:37:05;65.10;;;16.40;;
50122;SDS011;36021;48.670;6.184;2022-12-18T03:39:33;68.05;;;15.95;;
50122;SDS011;36021;48.670;6.184;2022-12-18T03:44:53;69.50;;;16.67;;
50122;SDS011;36021;48.670;6.184;2022-12-18T03:47:28;62.05;;;14.32;;
50122;SDS011;36021;48.670;6.184;2022-12-18T03:50:17;57.97;;;12.85;;
50122;SDS011;36021;48.670;6.184;2022-12-18T03:55:22;75.22;;;14.18;;
50122;SDS011;36021;48.670;6.184;2022-12-18T03:57:56;68.20;;;14.70;;
50122;SDS011;36021;48.670;6.184;2022-12-18T04:00:29;62.58;;;13.80;;
50122;SDS011;36021;48.670;6.184;2022-12-18T04:03:04;53.75;;;12.25;;
50122;SDS011;36021;48.670;6.184;2022-12-18T04:05:40;48.92;;;12.95;;
50122;SDS011;36021;48.670;6.184;2022-12-18T04:08:08;45.53;;;13.95;;
50122;SDS011;36021;48.670;6.184;2022-12-18T04:10:38;67.72;;;13.50;;
50122;SDS011;36021;48.670;6.184;2022-12-18T04:13:03;50.05;;;13.20;;
50122;SDS011;36021;48.670;6.184;2022-12-18T04:15:29;46.55;;;13.35;;
50122;SDS011;36021;48.670;6.184;2022-12-18T04:18:00;50.72;;;12.98;;
50122;SDS011;36021;48.670;6.184;2022-12-18T04:20:32;50.08;;;12.82;;
50122;SDS011;36021;48.670;6.184;2022-12-18T04:22:57;45.22;;;11.40;;
50122;SDS011;36021;48.670;6.184;2022-12-18T04:25:23;42.83;;;12.40;;
50122;SDS011;36021;48.670;6.184;2022-12-18T04:27:59;44.17;;;10.57;;
50122;SDS011;36021;48.670;6.184;2022-12-18T04:30:25;55.00;;;14.85;;
50122;SDS011;36021;48.670;6.184;2022-12-18T04:32:51;60.95;;;14.20;;
50122;SDS011;36021;48.670;6.184;2022-12-18T04:35:16;48.55;;;11.75;;
50122;SDS011;36021;48.670;6.184;2022-12-18T04:37:43;52.63;;;13.73;;
50122;SDS011;36021;48.670;6.184;2022-12-18T04:40:10;50.15;;;10.95;;
50122;SDS011;36021;48.670;6.184;2022-12-18T04:42:40;47.72;;;11.82;;
50122;SDS011;36021;48.670;6.184;2022-12-18T04:45:06;50.88;;;13.43;;
50122;SDS011;36021;48.670;6.184;2022-12-18T04:47:33;63.45;;;14.43;;
50122;SDS011;36021;48.670;6.184;2022-12-18T04:49:58;60.50;;;14.13;;
50122;SDS011;36021;48.670;6.184;2022-12-18T04:52:24;64.25;;;14.30;;
50122;SDS011;36021;48.670;6.184;2022-12-18T04:54:50;61.63;;;14.07;;
50122;SDS011;36021;48.670;6.184;2022-12-18T04:57:16;82.38;;;18.17;;
50122;SDS011;36021;48.670;6.184;2022-12-18T04:59:44;55.78;;;13.20;;
50122;SDS011;36021;48.670;6.184;2022-12-18T05:02:10;58.10;;;13.98;;
50122;SDS011;36021;48.670;6.184;2022-12-18T05:04:36;64.55;;;14.25;;
50122;SDS011;36021;48.670;6.184;2022-12-18T05:07:01;53.55;;;11.70;;
50122;SDS011;36021;48.670;6.184;2022-12-18T05:09:27;40.63;;;10.38;;
50122;SDS011;36021;48.670;6.184;2022-12-18T05:11:53;40.47;;;10.02;;
50122;SDS011;36021;48.670;6.184;2022-12-18T05:14:19;39.80;;;11.65;;
50122;SDS011;36021;48.670;6.184;2022-12-18T05:16:44;25.67;;;9.13;;
50122;SDS011;36021;48.670;6.184;2022-12-18T05:19:10;38.33;;;9.65;;
50122;SDS011;36021;48.670;6.184;2022-12-18T05:21:37;25.45;;;8.38;;
50122;SDS011;36021;48.670;6.184;2022-12-18T05:24:03;29.85;;;8.77;;
50122;SDS011;36021;48.670;6.184;2022-12-18T05:26:28;38.10;;;8.88;;
50122;SDS011;36021;48.670;6.184;2022-12-18T05:28:55;30.25;;;6.90;;
50122;SDS011;36021;48.670;6.184;2022-12-18T05:31:20;27.10;;;8.07;;
50122;SDS011;36021;48.670;6.184;2022-12-18T05:33:49;27.88;;;6.45;;
50122;SDS011;36021;48.670;6.184;2022-12-18T05:36:15;33.25;;;8.63;;
50122;SDS011;36021;48.670;6.184;2022-12-18T05:38:40;21.88;;;8.60;;
50122;SDS011;36021;48.670;6.184;2022-12-18T05:41:07;19.05;;;7.65;;
50122;SDS011;36021;48.670;6.184;2022-12-18T05:43:36;36.47;;;8.40;;
50122;SDS011;36021;48.670;6.184;2022-12-18T05:46:08;27.73;;;7.28;;
50122;SDS011;36021;48.670;6.184;2022-12-18T05:48:37;21.50;;;7.32;;
50122;SDS011;36021;48.670;6.184;2022-12-18T05:51:09;19.98;;;8.05;;
50122;SDS011;36021;48.670;6.184;2022-12-18T05:53:45;24.17;;;8.30;;
50122;SDS011;36021;48.670;6.184;2022-12-18T05:56:13;30.95;;;7.95;;
50122;SDS011;36021;48.670;6.184;2022-12-18T05:58:40;22.05;;;5.90;;
50122;SDS011;36021;48.670;6.184;2022-12-18T06:01:26;32.20;;;8.10;;
50122;SDS011;36021;48.670;6.184;2022-12-18T06:03:52;25.27;;;8.63;;
50122;SDS011;36021;48.670;6.184;2022-12-18T06:06:20;26.42;;;8.48;;
50122;SDS011;36021;48.670;6.184;2022-12-18T06:08:49;31.60;;;7.85;;
50122;SDS011;36021;48.670;6.184;2022-12-18T06:11:17;28.88;;;7.20;;
50122;SDS011;36021;48.670;6.184;2022-12-18T06:13:44;21.65;;;8.02;;
50122;SDS011;36021;48.670;6.184;2022-12-18T06:16:10;26.55;;;6.82;;
50122;SDS011;36021;48.670;6.184;2022-12-18T06:18:36;25.15;;;6.72;;
50122;SDS011;36021;48.670;6.184;2022-12-18T06:21:02;28.55;;;8.85;;
50122;SDS011;36021;48.670;6.184;2022-12-18T06:23:28;38.45;;;9.10;;
50122;SDS011;36021;48.670;6.184;2022-12-18T06:25:53;37.25;;;8.00;;
50122;SDS011;36021;48.670;6.184;2022-12-18T06:28:19;25.35;;;7.78;;
50122;SDS011;36021;48.670;6.184;2022-12-18T06:30:45;27.98;;;9.35;;
50122;SDS011;36021;48.670;6.184;2022-12-18T06:33:13;26.88;;;9.00;;
50122;SDS011;36021;48.670;6.184;2022-12-18T06:35:39;33.60;;;8.90;;
50122;SDS011;36021;48.670;6.184;2022-12-18T06:38:05;23.25;;;8.60;;
50122;SDS011;36021;48.670;6.184;2022-12-18T06:40:31;27.17;;;8.52;;
50122;SDS011;36021;48.670;6.184;2022-12-18T06:42:57;31.58;;;8.13;;
50122;SDS011;36021;48.670;6.184;2022-12-18T06:45:23;31.83;;;8.80;;
50122;SDS011;36021;48.670;6.184;2022-12-18T06:47:49;36.25;;;7.57;;
50122;SDS011;36021;48.670;6.184;2022-12-18T06:50:15;40.33;;;7.80;;
50122;SDS011;36021;48.670;6.184;2022-12-18T06:52:42;32.35;;;8.00;;
50122;SDS011;36021;48.670;6.184;2022-12-18T06:55:09;31.13;;;8.85;;
50122;SDS011;36021;48.670;6.184;2022-12-18T06:57:35;30.75;;;8.60;;
50122;SDS011;36021;48.670;6.184;2022-12-18T07:00:04;30.55;;;8.10;;
50122;SDS011;36021;48.670;6.184;2022-12-18T07:02:31;25.65;;;8.27;;
50122;SDS011;36021;48.670;6.184;2022-12-18T07:04:57;40.17;;;11.23;;
50122;SDS011;36021;48.670;6.184;2022-12-18T07:07:22;31.70;;;9.27;;
50122;SDS011;36021;48.670;6.184;2022-12-18T07:09:51;52.13;;;12.10;;
50122;SDS011;36021;48.670;6.184;2022-12-18T07:12:17;37.30;;;10.27;;
50122;SDS011;36021;48.670;6.184;2022-12-18T07:14:43;48.63;;;11.18;;
50122;SDS011;36021;48.670;6.184;2022-12-18T07:17:09;43.88;;;11.00;;
50122;SDS011;36021;48.670;6.184;2022-12-18T07:19:34;46.83;;;11.57;;
50122;SDS011;36021;48.670;6.184;2022-12-18T07:22:01;43.90;;;11.18;;
50122;SDS011;36021;48.670;6.184;2022-12-18T07:24:27;33.20;;;10.50;;
50122;SDS011;36021;48.670;6.184;2022-12-18T07:26:53;53.10;;;10.45;;
50122;SDS011;36021;48.670;6.184;2022-12-18T07:29:19;43.65;;;13.45;;
50122;SDS011;36021;48.670;6.184;2022-12-18T07:31:45;48.28;;;11.65;;
50122;SDS011;36021;48.670;6.184;2022-12-18T07:34:11;42.47;;;8.52;;
50122;SDS011;36021;48.670;6.184;2022-12-18T07:36:38;40.00;;;11.38;;
50122;SDS011;36021;48.670;6.184;2022-12-18T07:39:04;43.58;;;9.82;;
50122;SDS011;36021;48.670;6.184;2022-12-18T07:41:30;49.00;;;13.23;;
50122;SDS011;36021;48.670;6.184;2022-12-18T07:44:02;58.30;;;11.88;;
50122;SDS011;36021;48.670;6.184;2022-12-18T07:46:28;54.88;;;10.80;;
50122;SDS011;36021;48.670;6.184;2022-12-18T07:48:53;42.00;;;11.15;;
50122;SDS011;36021;48.670;6.184;2022-12-18T07:51:20;49.67;;;12.10;;
50122;SDS011;36021;48.670;6.184;2022-12-18T07:53:46;52.00;;;13.23;;
50122;SDS011;36021;48.670;6.184;2022-12-18T07:56:12;63.72;;;12.15;;
50122;SDS011;36021;48.670;6.184;2022-12-18T07:58:39;39.80;;;9.40;;
50122;SDS011;36021;48.670;6.184;2022-12-18T08:03:31;37.50;;;10.85;;
50122;SDS011;36021;48.670;6.184;2022-12-18T08:06:00;40.97;;;10.43;;
50122;SDS011;36021;48.670;6.184;2022-12-18T08:08:26;38.22;;;10.82;;
50122;SDS011;36021;48.670;6.184;2022-12-18T08:10:52;29.50;;;8.85;;
50122;SDS011;36021;48.670;6.184;2022-12-18T08:13:18;34.00;;;9.20;;
50122;SDS011;36021;48.670;6.184;2022-12-18T08:15:44;45.03;;;10.82;;
50122;SDS011;36021;48.670;6.184;2022-12-18T08:18:10;33.60;;;10.45;;
50122;SDS011;36021;48.670;6.184;2022-12-18T08:20:35;30.77;;;8.30;;
50122;SDS011;36021;48.670;6.184;2022-12-18T08:23:01;33.22;;;9.80;;
50122;SDS011;36021;48.670;6.184;2022-12-18T08:25:27;29.15;;;9.27;;
50122;SDS011;36021;48.670;6.184;2022-12-18T08:27:52;33.97;;;10.07;;
50122;SDS011;36021;48.670;6.184;2022-12-18T08:30:19;36.00;;;10.75;;
50122;SDS011;36021;48.670;6.184;2022-12-18T08:32:44;37.92;;;10.23;;
50122;SDS011;36021;48.670;6.184;2022-12-18T08:35:10;22.13;;;8.77;;
50122;SDS011;36021;48.670;6.184;2022-12-18T08:37:37;38.15;;;9.77;;
50122;SDS011;36021;48.670;6.184;2022-12-18T08:40:03;50.67;;;11.30;;
50122;SDS011;36021;48.670;6.184;2022-12-18T08:42:29;53.63;;;12.85;;
50122;SDS011;36021;48.670;6.184;2022-12-18T08:45:13;53.95;;;12.27;;
50122;SDS011;36021;48.670;6.184;2022-12-18T08:47:39;33.05;;;10.00;;
50122;SDS011;36021;48.670;6.184;2022-12-18T08:50:04;46.20;;;11.80;;
50122;SDS011;36021;48.670;6.184;2022-12-18T08:52:32;38.08;;;12.63;;
50122;SDS011;36021;48.670;6.184;2022-12-18T08:55:00;49.30;;;13.52;;
50122;SDS011;36021;48.670;6.184;2022-12-18T08:57:25;56.15;;;14.38;;
50122;SDS011;36021;48.670;6.184;2022-12-18T08:59:52;52.15;;;13.05;;
50122;SDS011;36021;48.670;6.184;2022-12-18T09:02:17;59.72;;;13.85;;
50122;SDS011;36021;48.670;6.184;2022-12-18T09:04:43;50.35;;;12.07;;
50122;SDS011;36021;48.670;6.184;2022-12-18T09:09:38;47.88;;;13.75;;
50122;SDS011;36021;48.670;6.184;2022-12-18T09:12:03;60.28;;;15.00;;
50122;SDS011;36021;48.670;6.184;2022-12-18T09:14:29;62.95;;;14.02;;
50122;SDS011;36021;48.670;6.184;2022-12-18T09:16:55;47.50;;;13.00;;
50122;SDS011;36021;48.670;6.184;2022-12-18T09:19:20;63.50;;;13.23;;
50122;SDS011;36021;48.670;6.184;2022-12-18T09:21:46;36.90;;;10.25;;
50122;SDS011;36021;48.670;6.184;2022-12-18T09:24:15;47.53;;;12.07;;
50122;SDS011;36021;48.670;6.184;2022-12-18T09:26:41;43.22;;;11.65;;
50122;SDS011;36021;48.670;6.184;2022-12-18T09:29:07;54.35;;;15.07;;
50122;SDS011;36021;48.670;6.184;2022-12-18T09:31:36;57.30;;;13.95;;
50122;SDS011;36021;48.670;6.184;2022-12-18T09:34:04;36.20;;;11.68;;
50122;SDS011;36021;48.670;6.184;2022-12-18T09:36:31;44.22;;;13.45;;
50122;SDS011;36021;48.670;6.184;2022-12-18T09:38:56;47.22;;;13.38;;
50122;SDS011;36021;48.670;6.184;2022-12-18T09:43:49;68.80;;;13.30;;
50122;SDS011;36021;48.670;6.184;2022-12-18T09:46:21;64.55;;;14.10;;
50122;SDS011;36021;48.670;6.184;2022-12-18T09:48:52;51.85;;;13.30;;
50122;SDS011;36021;48.670;6.184;2022-12-18T09:51:26;50.33;;;12.15;;
50122;SDS011;36021;48.670;6.184;2022-12-18T09:54:01;51.83;;;12.82;;
50122;SDS011;36021;48.670;6.184;2022-12-18T09:56:31;70.57;;;15.00;;
50122;SDS011;36021;48.670;6.184;2022-12-18T09:59:03;64.95;;;15.48;;
50122;SDS011;36021;48.670;6.184;2022-12-18T10:01:30;50.22;;;13.10;;
50122;SDS011;36021;48.670;6.184;2022-12-18T10:03:57;29.50;;;10.07;;
50122;SDS011;36021;48.670;6.184;2022-12-18T10:09:24;44.15;;;10.60;;
50122;SDS011;36021;48.670;6.184;2022-12-18T10:15:04;47.80;;;11.48;;
50122;SDS011;36021;48.670;6.184;2022-12-18T10:17:46;29.27;;;10.25;;
50122;SDS011;36021;48.670;6.184;2022-12-18T10:26:07;48.85;;;11.65;;
50122;SDS011;36021;48.670;6.184;2022-12-18T10:28:36;30.33;;;9.43;;
50122;SDS011;36021;48.670;6.184;2022-12-18T10:34:02;29.17;;;10.98;;
50122;SDS011;36021;48.670;6.184;2022-12-18T10:36:27;28.17;;;7.13;;
50122;SDS011;36021;48.670;6.184;2022-12-18T10:38:55;29.92;;;8.48;;
50122;SDS011;36021;48.670;6.184;2022-12-18T10:41:40;34.25;;;8.32;;
50122;SDS011;36021;48.670;6.184;2022-12-18T10:44:12;37.00;;;8.43;;
50122;SDS011;36021;48.670;6.184;2022-12-18T10:46:44;23.10;;;9.05;;
50122;SDS011;36021;48.670;6.184;2022-12-18T10:49:27;25.05;;;8.85;;
50122;SDS011;36021;48.670;6.184;2022-12-18T10:52:15;23.42;;;7.07;;
50122;SDS011;36021;48.670;6.184;2022-12-18T10:57:41;36.22;;;8.52;;
50122;SDS011;36021;48.670;6.184;2022-12-18T11:02:49;46.55;;;13.27;;
50122;SDS011;36021;48.670;6.184;2022-12-18T11:05:25;54.58;;;15.32;;
50122;SDS011;36021;48.670;6.184;2022-12-18T11:07:52;80.88;;;18.00;;
50122;SDS011;36021;48.670;6.184;2022-12-18T11:10:40;79.00;;;16.95;;
50122;SDS011;36021;48.670;6.184;2022-12-18T11:13:15;79.20;;;17.20;;
50122;SDS011;36021;48.670;6.184;2022-12-18T11:15:44;59.53;;;12.93;;
50122;SDS011;36021;48.670;6.184;2022-12-18T11:18:24;47.60;;;15.05;;
50122;SDS011;36021;48.670;6.184;2022-12-18T11:20:59;70.53;;;17.38;;
50122;SDS011;36021;48.670;6.184;2022-12-18T11:23:34;43.03;;;12.35;;
50122;SDS011;36021;48.670;6.184;2022-12-18T11:26:02;50.15;;;12.88;;
50122;SDS011;36021;48.670;6.184;2022-12-18T11:28:37;67.85;;;15.90;;
50122;SDS011;36021;48.670;6.184;2022-12-18T11:36:21;85.20;;;17.65;;
50122;SDS011;36021;48.670;6.184;2022-12-18T11:38:47;59.63;;;16.30;;
50122;SDS011;36021;48.670;6.184;2022-12-18T11:46:31;55.95;;;17.60;;
50122;SDS011;36021;48.670;6.184;2022-12-18T11:51:39;67.72;;;15.82;;
50122;SDS011;36021;48.670;6.184;2022-12-18T11:54:13;73.38;;;17.60;;
50122;SDS011;36021;48.670;6.184;2022-12-18T11:56:50;60.08;;;15.52;;
50122;SDS011;36021;48.670;6.184;2022-12-18T12:01:53;54.78;;;13.45;;
50122;SDS011;36021;48.670;6.184;2022-12-18T12:07:02;76.68;;;19.23;;
50122;SDS011;36021;48.670;6.184;2022-12-18T12:09:52;43.00;;;12.60;;
50122;SDS011;36021;48.670;6.184;2022-12-18T12:12:32;67.72;;;15.90;;
50122;SDS011;36021;48.670;6.184;2022-12-18T12:15:13;89.20;;;21.17;;
50122;SDS011;36021;48.670;6.184;2022-12-18T12:25:44;92.40;;;22.40;;
50122;SDS011;36021;48.670;6.184;2022-12-18T12:28:32;79.55;;;20.85;;
50122;SDS011;36021;48.670;6.184;2022-12-18T12:39:22;67.55;;;16.88;;
50122;SDS011;36021;48.670;6.184;2022-12-18T12:41:54;67.07;;;18.17;;
50122;SDS011;36021;48.670;6.184;2022-12-18T12:44:43;64.80;;;16.42;;
50122;SDS011;36021;48.670;6.184;2022-12-18T12:47:17;77.13;;;18.80;;
50122;SDS011;36021;48.670;6.184;2022-12-18T12:49:48;72.80;;;17.83;;
50122;SDS011;36021;48.670;6.184;2022-12-18T12:52:58;59.58;;;15.85;;
50122;SDS011;36021;48.670;6.184;2022-12-18T12:55:14;84.80;;;18.40;;
50122;SDS011;36021;48.670;6.184;2022-12-18T13:00:41;79.05;;;21.60;;
50122;SDS011;36021;48.670;6.184;2022-12-18T13:03:31;69.13;;;16.45;;
50122;SDS011;36021;48.670;6.184;2022-12-18T13:06:12;54.65;;;15.13;;
50122;SDS011;36021;48.670;6.184;2022-12-18T13:08:56;46.33;;;14.70;;
50122;SDS011;36021;48.670;6.184;2022-12-18T13:11:30;73.90;;;17.15;;
50122;SDS011;36021;48.670;6.184;2022-12-18T13:14:26;52.95;;;15.00;;
50122;SDS011;36021;48.670;6.184;2022-12-18T13:20:06;51.55;;;15.13;;
50122;SDS011;36021;48.670;6.184;2022-12-18T13:38:23;62.65;;;15.20;;
50122;SDS011;36021;48.670;6.184;2022-12-18T13:43:47;62.13;;;14.05;;
50122;SDS011;36021;48.670;6.184;2022-12-18T13:46:21;61.55;;;16.38;;
50122;SDS011;36021;48.670;6.184;2022-12-18T13:51:39;64.55;;;15.23;;
50122;SDS011;36021;48.670;6.184;2022-12-18T13:54:17;61.55;;;17.70;;
50122;SDS011;36021;48.670;6.184;2022-12-18T13:56:47;68.40;;;16.25;;
50122;SDS011;36021;48.670;6.184;2022-12-18T14:01:45;88.95;;;20.73;;
50122;SDS011;36021;48.670;6.184;2022-12-18T14:04:23;87.68;;;18.98;;
50122;SDS011;36021;48.670;6.184;2022-12-18T14:06:52;52.83;;;14.15;;
50122;SDS011;36021;48.670;6.184;2022-12-18T14:09:25;50.38;;;13.85;;
50122;SDS011;36021;48.670;6.184;2022-12-18T14:11:54;53.83;;;14.40;;
50122;SDS011;36021;48.670;6.184;2022-12-18T14:14:41;52.88;;;13.75;;
50122;SDS011;36021;48.670;6.184;2022-12-18T14:17:10;46.92;;;12.40;;
50122;SDS011;36021;48.670;6.184;2022-12-18T14:19:40;54.30;;;12.50;;
50122;SDS011;36021;48.670;6.184;2022-12-18T14:22:11;51.50;;;12.88;;
50122;SDS011;36021;48.670;6.184;2022-12-18T14:24:46;44.05;;;12.80;;
50122;SDS011;36021;48.670;6.184;2022-12-18T14:27:29;46.95;;;12.88;;
50122;SDS011;36021;48.670;6.184;2022-12-18T14:29:55;53.53;;;13.02;;
50122;SDS011;36021;48.670;6.184;2022-12-18T14:32:20;49.38;;;13.70;;
50122;SDS011;36021;48.670;6.184;2022-12-18T14:34:50;54.45;;;11.25;;
50122;SDS011;36021;48.670;6.184;2022-12-18T14:37:25;38.70;;;11.27;;
50122;SDS011;36021;48.670;6.184;2022-12-18T14:40:02;30.80;;;10.23;;
50122;SDS011;36021;48.670;6.184;2022-12-18T14:42:29;38.22;;;12.15;;
50122;SDS011;36021;48.670;6.184;2022-12-18T14:47:57;42.58;;;9.80;;
50122;SDS011;36021;48.670;6.184;2022-12-18T14:50:24;36.25;;;11.20;;
50122;SDS011;36021;48.670;6.184;2022-12-18T14:52:50;38.75;;;11.40;;
50122;SDS011;36021;48.670;6.184;2022-12-18T14:55:17;27.27;;;9.02;;
50122;SDS011;36021;48.670;6.184;2022-12-18T14:57:44;23.98;;;10.57;;
50122;SDS011;36021;48.670;6.184;2022-12-18T15:00:15;26.30;;;10.02;;
50122;SDS011;36021;48.670;6.184;2022-12-18T15:02:50;25.73;;;9.50;;
50122;SDS011;36021;48.670;6.184;2022-12-18T15:05:19;24.73;;;8.50;;
50122;SDS011;36021;48.670;6.184;2022-12-18T15:07:51;28.98;;;9.63;;
50122;SDS011;36021;48.670;6.184;2022-12-18T15:12:49;32.60;;;9.65;;
50122;SDS011;36021;48.670;6.184;2022-12-18T15:20:42;38.33;;;10.68;;
50122;SDS011;36021;48.670;6.184;2022-12-18T15:25:42;38.90;;;11.25;;
50122;SDS011;36021;48.670;6.184;2022-12-18T15:33:38;44.03;;;11.27;;
50122;SDS011;36021;48.670;6.184;2022-12-18T15:36:10;35.95;;;11.65;;
50122;SDS011;36021;48.670;6.184;2022-12-18T15:38:37;25.93;;;9.63;;
50122;SDS011;36021;48.670;6.184;2022-12-18T15:41:03;34.45;;;9.95;;
50122;SDS011;36021;48.670;6.184;2022-12-18T15:43:29;26.27;;;8.55;;
50122;SDS011;36021;48.670;6.184;2022-12-18T15:46:02;30.17;;;10.65;;
50122;SDS011;36021;48.670;6.184;2022-12-18T15:48:39;32.60;;;8.85;;
50122;SDS011;36021;48.670;6.184;2022-12-18T15:51:10;28.13;;;10.57;;
50122;SDS011;36021;48.670;6.184;2022-12-18T15:53:39;25.00;;;8.55;;
50122;SDS011;36021;48.670;6.184;2022-12-18T15:56:07;25.60;;;8.68;;
50122;SDS011;36021;48.670;6.184;2022-12-18T15:58:55;27.27;;;8.70;;
50122;SDS011;36021;48.670;6.184;2022-12-18T16:01:22;29.23;;;9.43;;
50122;SDS011;36021;48.670;6.184;2022-12-18T16:06:16;27.92;;;8.90;;
50122;SDS011;36021;48.670;6.184;2022-12-18T16:08:42;20.60;;;8.63;;
50122;SDS011;36021;48.670;6.184;2022-12-18T16:11:41;29.10;;;9.65;;
50122;SDS011;36021;48.670;6.184;2022-12-18T16:16:39;29.08;;;9.85;;
50122;SDS011;36021;48.670;6.184;2022-12-18T16:19:05;27.38;;;9.70;;
50122;SDS011;36021;48.670;6.184;2022-12-18T16:21:30;22.63;;;8.70;;
50122;SDS011;36021;48.670;6.184;2022-12-18T16:23:58;33.25;;;8.63;;
50122;SDS011;36021;48.670;6.184;2022-12-18T16:26:24;18.75;;;8.05;;
50122;SDS011;36021;48.670;6.184;2022-12-18T16:28:50;19.50;;;8.65;;
50122;SDS011;36021;48.670;6.184;2022-12-18T16:31:15;23.70;;;8.27;;
50122;SDS011;36021;48.670;6.184;2022-12-18T16:33:41;26.30;;;8.65;;
50122;SDS011;36021;48.670;6.184;2022-12-18T16:36:07;25.23;;;9.77;;
50122;SDS011;36021;48.670;6.184;2022-12-18T16:38:33;29.52;;;8.52;;
50122;SDS011;36021;48.670;6.184;2022-12-18T16:40:58;26.52;;;10.25;;
50122;SDS011;36021;48.670;6.184;2022-12-18T16:43:43;29.70;;;9.32;;
50122;SDS011;36021;48.670;6.184;2022-12-18T16:46:08;32.97;;;9.35;;
50122;SDS011;36021;48.670;6.184;2022-12-18T16:48:34;27.05;;;9.00;;
50122;SDS011;36021;48.670;6.184;2022-12-18T16:51:01;26.50;;;9.07;;
50122;SDS011;36021;48.670;6.184;2022-12-18T16:53:30;31.73;;;9.82;;
50122;SDS011;36021;48.670;6.184;2022-12-18T16:55:57;28.67;;;8.98;;
50122;SDS011;36021;48.670;6.184;2022-12-18T16:58:23;27.77;;;9.55;;
50122;SDS011;36021;48.670;6.184;2022-12-18T17:00:49;26.60;;;9.07;;
50122;SDS011;36021;48.670;6.184;2022-12-18T17:03:14;21.45;;;8.52;;
50122;SDS011;36021;48.670;6.184;2022-12-18T17:05:40;23.65;;;7.82;;
50122;SDS011;36021;48.670;6.184;2022-12-18T17:08:06;22.77;;;8.38;;
50122;SDS011;36021;48.670;6.184;2022-12-18T17:10:34;17.63;;;7.15;;
50122;SDS011;36021;48.670;6.184;2022-12-18T17:13:00;22.65;;;8.23;;
50122;SDS011;36021;48.670;6.184;2022-12-18T17:15:26;23.00;;;9.15;;
50122;SDS011;36021;48.670;6.184;2022-12-18T17:17:53;26.48;;;8.75;;